Time;durP1;ratioP1;P1;durP2;ratioP2;P2;SDS_P1;SDS_P2;PMS_P1;PMS_P2;Temp;Humidity;BMP_temperature;BMP_pressure;BME280_temperature;BME280_humidity;BME280_pressure;Samples;Min_cycle;Max_cycle;Signal;HPM_P1;HPM_P2
2021/08/13 00:00:02;;;;;;;0.53;0.53;;;23.30;99.90;;;;;;20641804;23;20322;-75
2021/08/13 00:10:08;;;;;;;1.60;0.93;;;23.60;99.90;;;;;;20652621;28;20270;-76
2021/08/13 00:20:13;;;;;;;3.20;1.57;;;23.50;99.90;;;;;;20629816;28;20207;-79
2021/08/13 00:30:18;;;;;;;3.23;1.30;;;23.30;99.90;;;;;;20664402;28;20539;-76
2021/08/13 00:40:22;;;;;;;1.27;1.17;;;23.20;99.90;;;;;;20692653;28;20203;-76
2021/08/13 00:50:27;;;;;;;1.10;1.00;;;23.10;99.90;;;;;;20680700;28;20222;-77
2021/08/13 01:00:33;;;;;;;1.60;1.37;;;22.90;99.90;;;;;;20701418;28;20474;-77
2021/08/13 01:10:46;;;;;;;3.50;1.17;;;22.80;99.90;;;;;;20636645;28;20227;-77
2021/08/13 01:21:18;;;;;;;0.73;0.70;;;22.80;99.90;;;;;;20617104;28;20199;-76
2021/08/13 01:31:25;;;;;;;3.73;1.13;;;22.70;99.90;;;;;;20618107;28;20222;-76
2021/08/13 01:41:32;;;;;;;2.20;1.43;;;22.80;99.90;;;;;;20696185;28;20198;-75
2021/08/13 01:51:36;;;;;;;10.23;1.50;;;22.70;99.90;;;;;;20696649;28;20234;-76
2021/08/13 02:01:42;;;;;;;1.60;1.00;;;22.70;99.90;;;;;;20675406;23;20606;-78
2021/08/13 02:11:46;;;;;;;1.07;0.90;;;22.50;99.90;;;;;;20532589;28;20232;-75
2021/08/13 02:21:52;;;;;;;1.50;0.87;;;22.60;99.90;;;;;;20531324;28;20203;-79
2021/08/13 02:31:56;;;;;;;1.07;0.50;;;22.70;99.90;;;;;;20533389;28;20207;-79
2021/08/13 02:42:03;;;;;;;2.10;1.47;;;22.90;99.90;;;;;;20539259;28;20711;-79
2021/08/13 02:52:09;;;;;;;5.60;2.20;;;22.80;99.90;;;;;;20528792;28;20196;-79
2021/08/13 03:02:14;;;;;;;4.37;2.40;;;22.80;99.90;;;;;;20567641;28;20235;-80
2021/08/13 03:12:19;;;;;;;0.90;0.70;;;22.70;99.90;;;;;;20551724;28;20263;-81
2021/08/13 03:22:24;;;;;;;1.87;1.33;;;22.90;99.90;;;;;;20546293;28;20227;-80
2021/08/13 03:32:28;;;;;;;6.40;2.13;;;22.80;99.90;;;;;;20585184;28;20192;-82
2021/08/13 03:42:33;;;;;;;1.43;1.03;;;22.80;99.90;;;;;;20622570;28;20254;-80
2021/08/13 03:52:36;;;;;;;1.13;1.03;;;22.70;99.90;;;;;;20621577;28;20254;-82
2021/08/13 04:02:41;;;;;;;1.27;0.83;;;22.60;99.90;;;;;;20704728;28;20231;-80
2021/08/13 04:12:45;;;;;;;3.23;1.33;;;22.50;99.90;;;;;;20627390;28;20199;-77
2021/08/13 04:22:50;;;;;;;0.97;0.77;;;22.40;99.90;;;;;;20606692;28;20261;-78
2021/08/13 04:32:54;;;;;;;1.03;0.90;;;22.40;99.90;;;;;;20615184;28;20207;-78
2021/08/13 04:43:00;;;;;;;2.63;1.53;;;22.90;99.90;;;;;;20606786;28;20773;-76
2021/08/13 04:53:03;;;;;;;2.33;2.13;;;22.90;99.90;;;;;;20687742;28;20202;-78
2021/08/13 05:03:08;;;;;;;1.33;1.23;;;23.10;99.90;;;;;;20699908;28;20222;-80
2021/08/13 05:13:12;;;;;;;9.07;1.20;;;23.10;99.90;;;;;;20601173;28;20195;-81
2021/08/13 05:23:17;;;;;;;1.27;1.07;;;23.00;99.90;;;;;;20602082;28;20223;-79
2021/08/13 05:33:21;;;;;;;0.83;0.83;;;23.10;99.90;;;;;;20601897;28;20278;-83
2021/08/13 05:43:26;;;;;;;11.37;1.50;;;22.80;99.90;;;;;;20619717;28;20690;-81
2021/08/13 05:53:30;;;;;;;1.88;1.75;;;23.20;99.90;;;;;;20620359;28;20200;-79
2021/08/13 06:03:35;;;;;;;1.42;1.33;;;23.70;99.90;;;;;;20621339;28;20239;-84
2021/08/13 06:13:38;;;;;;;0.52;0.45;;;24.20;99.90;;;;;;20627885;28;20265;-80
2021/08/13 06:23:43;;;;;;;0.57;0.55;;;24.50;99.90;;;;;;20643142;28;20592;-77
2021/08/13 06:33:47;;;;;;;1.08;1.05;;;24.90;99.90;;;;;;20639815;28;20399;-78
2021/08/13 06:43:52;;;;;;;1.05;0.82;;;25.50;99.90;;;;;;20641160;28;20325;-81
2021/08/13 06:53:56;;;;;;;2.60;1.42;;;25.90;99.90;;;;;;20634163;28;20334;-77
2021/08/13 07:04:00;;;;;;;1.30;1.20;;;26.30;99.90;;;;;;20602659;28;20223;-80
2021/08/13 07:14:04;;;;;;;10.80;2.13;;;26.60;99.90;;;;;;20635772;28;20746;-79
2021/08/13 07:24:09;;;;;;;2.40;2.20;;;27.20;99.90;;;;;;20618993;28;20227;-80
2021/08/13 07:34:21;;;;;;;3.22;1.58;;;27.20;99.90;;;;;;20629423;28;20203;-81
2021/08/13 07:44:29;;;;;;;3.15;1.70;;;27.20;99.90;;;;;;20609795;28;20242;-80
2021/08/13 07:54:49;;;;;;;6.60;2.35;;;27.40;99.90;;;;;;20606478;28;20402;-79
2021/08/13 08:04:55;;;;;;;1.63;1.50;;;27.70;99.90;;;;;;20623991;28;20326;-82
2021/08/13 08:15:01;;;;;;;1.25;1.02;;;27.80;99.90;;;;;;20641006;28;20490;-81
2021/08/13 08:25:07;;;;;;;1.88;1.45;;;27.80;99.90;;;;;;20673916;28;20234;-81
2021/08/13 08:35:13;;;;;;;1.15;0.73;;;28.30;99.90;;;;;;20628452;28;20269;-79
2021/08/13 08:45:22;;;;;;;1.42;1.23;;;28.60;99.90;;;;;;20592993;28;20562;-84
2021/08/13 08:55:28;;;;;;;2.47;1.60;;;28.90;99.90;;;;;;20623701;28;20191;-81
2021/08/13 09:05:36;;;;;;;15.32;1.33;;;29.20;99.90;;;;;;20605642;28;20235;-81
2021/08/13 09:15:41;;;;;;;2.47;0.98;;;29.30;99.90;;;;;;20628203;28;20496;-78
2021/08/13 09:25:57;;;;;;;3.63;2.42;;;29.60;99.90;;;;;;20573080;28;20314;-81
2021/08/13 09:36:01;;;;;;;10.10;1.83;;;29.70;99.90;;;;;;20543622;28;20196;-78
2021/08/13 09:46:07;;;;;;;5.40;2.28;;;29.60;99.90;;;;;;20611315;28;20230;-79
2021/08/13 09:56:43;;;;;;;3.83;1.67;;;29.50;99.90;;;;;;20618857;28;20258;-75
2021/08/13 10:06:55;;;;;;;1.92;1.48;;;29.70;99.90;;;;;;20567891;28;20267;-80
2021/08/13 10:17:13;;;;;;;2.50;1.63;;;30.00;99.90;;;;;;20538904;28;20659;-78
2021/08/13 10:27:19;;;;;;;8.13;2.03;;;30.60;99.90;;;;;;20531098;28;20330;-77
2021/08/13 10:37:26;;;;;;;2.40;1.48;;;31.20;99.90;;;;;;20534549;28;20204;-79
2021/08/13 10:47:41;;;;;;;3.03;1.75;;;31.50;99.90;;;;;;20535180;28;20306;-79
2021/08/13 10:57:59;;;;;;;3.35;1.33;;;31.90;99.90;;;;;;20532205;28;20199;-82
2021/08/13 11:08:06;;;;;;;2.67;2.10;;;32.00;99.90;;;;;;20596477;28;20420;-80
2021/08/13 11:18:34;;;;;;;1.58;1.48;;;32.00;99.90;;;;;;20631124;28;20207;-80
2021/08/13 11:28:39;;;;;;;2.40;1.75;;;31.90;99.90;;;;;;20612009;28;20568;-79
2021/08/13 11:38:59;;;;;;;8.52;2.38;;;32.50;99.90;;;;;;20614506;28;20282;-81
2021/08/13 11:49:05;;;;;;;2.72;2.10;;;32.70;99.90;;;;;;20630971;28;20227;-81
2021/08/13 11:59:09;;;;;;;2.78;2.40;;;33.80;99.90;;;;;;20628094;28;20200;-83
2021/08/13 12:09:30;;;;;;;4.55;2.95;;;33.80;99.90;;;;;;20552692;28;20306;-85
2021/08/13 12:19:34;;;;;;;3.55;1.80;;;34.40;99.90;;;;;;20537919;28;20203;-82
2021/08/13 12:29:40;;;;;;;6.20;3.10;;;34.20;99.90;;;;;;20530421;28;20228;-82
2021/08/13 12:39:46;;;;;;;2.72;2.53;;;35.20;99.90;;;;;;20547373;28;20197;-81
2021/08/13 12:49:53;;;;;;;2.55;1.92;;;34.90;99.90;;;;;;20543495;28;21217;-81
2021/08/13 13:00:02;;;;;;;5.15;3.35;;;35.70;99.90;;;;;;20522051;28;20700;-81
2021/08/13 13:10:18;;;;;;;3.20;2.03;;;35.10;99.90;;;;;;20625909;28;20226;-85
2021/08/13 13:20:23;;;;;;;6.20;2.97;;;35.40;99.90;;;;;;20587243;28;20667;-82
2021/08/13 13:30:37;;;;;;;4.35;3.03;;;35.40;99.90;;;;;;20621793;28;20230;-84
2021/08/13 13:40:42;;;;;;;2.72;2.28;;;35.60;99.90;;;;;;20602470;28;20768;-81
2021/08/13 13:50:49;;;;;;;3.33;2.33;;;35.00;99.90;;;;;;20593402;28;20329;-83
2021/08/13 14:00:52;;;;;;;2.67;2.30;;;35.70;99.90;;;;;;20540693;23;20239;-82
2021/08/13 14:11:02;;;;;;;8.15;2.80;;;36.10;99.90;;;;;;20510968;28;20475;-83
2021/08/13 14:21:06;;;;;;;1.92;1.63;;;36.60;99.90;;;;;;20492995;28;20205;-80
2021/08/13 14:31:13;;;;;;;2.35;1.67;;;36.10;99.90;;;;;;20456980;29;20221;-86
2021/08/13 14:41:17;;;;;;;4.43;2.40;;;36.70;99.90;;;;;;20471603;28;20287;-83
2021/08/13 14:51:23;;;;;;;2.05;1.83;;;36.50;99.90;;;;;;20467668;29;20225;-80
2021/08/13 15:01:28;;;;;;;3.08;2.22;;;36.30;99.90;;;;;;20541471;28;20283;-83
2021/08/13 15:11:47;;;;;;;3.13;2.05;;;36.10;99.90;;;;;;20615310;28;20270;-82
2021/08/13 15:21:51;;;;;;;3.25;2.40;;;35.90;99.90;;;;;;20597072;28;20191;-81
2021/08/13 15:31:59;;;;;;;1.83;1.70;;;36.00;99.90;;;;;;20614498;28;20625;-78
2021/08/13 15:42:03;;;;;;;2.00;1.73;;;35.40;99.90;;;;;;20654631;28;20322;-82
2021/08/13 15:52:09;;;;;;;2.83;1.92;;;34.50;99.90;;;;;;20632562;28;20230;-79
2021/08/13 16:02:14;;;;;;;3.03;1.83;;;32.90;99.90;;;;;;20591837;28;20231;-79
2021/08/13 16:12:20;;;;;;;2.80;2.30;;;32.00;99.90;;;;;;20536323;28;20310;-82
2021/08/13 16:22:26;;;;;;;5.20;2.53;;;31.10;99.90;;;;;;20624284;28;20230;-88
2021/08/13 16:32:31;;;;;;;6.00;2.70;;;30.90;99.90;;;;;;20628624;28;20227;-83
2021/08/13 16:42:37;;;;;;;6.68;2.72;;;30.50;99.90;;;;;;20632073;28;20490;-84
2021/08/13 16:52:42;;;;;;;2.55;2.35;;;30.20;99.90;;;;;;20598624;28;20578;-83
2021/08/13 17:02:46;;;;;;;5.22;2.60;;;30.20;99.90;;;;;;20633438;28;20200;-81
2021/08/13 17:12:53;;;;;;;4.25;2.25;;;30.00;99.90;;;;;;20625147;28;20227;-79
2021/08/13 17:22:57;;;;;;;3.75;2.30;;;30.20;99.90;;;;;;20606081;28;20277;-84
2021/08/13 17:33:03;;;;;;;6.97;1.73;;;30.80;99.90;;;;;;20622967;28;20231;-82
2021/08/13 17:43:07;;;;;;;3.25;2.22;;;30.70;99.90;;;;;;20609036;28;20530;-87
2021/08/13 17:53:12;;;;;;;8.43;2.85;;;30.90;99.90;;;;;;20686672;23;20317;-85
2021/08/13 18:03:16;;;;;;;2.00;1.52;;;30.50;99.90;;;;;;20626295;28;20302;-85
2021/08/13 18:13:21;;;;;;;2.90;2.47;;;29.90;99.90;;;;;;20681559;28;20652;-77
2021/08/13 18:23:25;;;;;;;2.60;1.80;;;28.80;99.90;;;;;;20639489;28;20654;-83
2021/08/13 18:33:34;;;;;;;2.72;2.38;;;28.20;99.90;;;;;;20670423;28;20230;-77
2021/08/13 18:43:38;;;;;;;1.40;1.30;;;27.90;99.90;;;;;;20660727;28;20203;-77
2021/08/13 18:53:44;;;;;;;7.65;2.95;;;27.90;99.90;;;;;;20613162;28;20231;-85
2021/08/13 19:03:47;;;;;;;4.50;2.53;;;27.70;99.90;;;;;;20615282;28;20195;-84
2021/08/13 19:13:52;;;;;;;3.15;1.98;;;27.30;99.90;;;;;;20597426;28;20716;-74
2021/08/13 19:23:56;;;;;;;4.07;2.78;;;27.00;99.90;;;;;;20623558;28;20782;-84
2021/08/13 19:34:01;;;;;;;4.20;2.60;;;27.10;99.90;;;;;;20654836;28;20230;-84
2021/08/13 19:44:05;;;;;;;4.47;2.30;;;27.10;99.90;;;;;;20704031;28;20231;-80
2021/08/13 19:54:10;;;;;;;3.33;2.67;;;26.90;99.90;;;;;;20704752;28;20238;-81
2021/08/13 20:04:14;;;;;;;15.40;3.13;;;26.60;99.90;;;;;;20680162;28;20604;-81
2021/08/13 20:14:20;;;;;;;4.25;2.22;;;26.50;99.90;;;;;;20604643;28;20879;-78
2021/08/13 20:24:23;;;;;;;2.33;1.80;;;26.40;99.90;;;;;;20607042;28;20199;-75
2021/08/13 20:34:28;;;;;;;4.28;1.60;;;26.20;99.90;;;;;;20630279;28;20229;-80
2021/08/13 20:44:32;;;;;;;6.38;2.47;;;26.30;99.90;;;;;;20701331;28;20203;-80
2021/08/13 20:54:37;;;;;;;5.68;2.40;;;26.10;99.90;;;;;;20681448;28;20239;-82
2021/08/13 21:04:41;;;;;;;2.88;1.90;;;26.10;99.90;;;;;;20688921;28;20199;-83
2021/08/13 21:14:46;;;;;;;2.88;1.90;;;26.00;99.90;;;;;;20603682;28;20223;-81
2021/08/13 21:24:50;;;;;;;1.92;1.67;;;25.80;99.90;;;;;;20617886;28;20199;-81
2021/08/13 21:34:55;;;;;;;2.40;1.45;;;25.70;99.90;;;;;;20647182;28;20229;-77
2021/08/13 21:44:58;;;;;;;1.90;1.52;;;25.40;99.90;;;;;;20699569;28;20308;-78
2021/08/13 21:55:04;;;;;;;4.45;2.00;;;25.20;99.90;;;;;;20697349;28;20317;-79
2021/08/13 22:05:08;;;;;;;3.75;2.15;;;25.70;99.90;;;;;;20679525;28;20195;-80
2021/08/13 22:15:14;;;;;;;2.58;1.83;;;25.60;99.90;;;;;;20651905;28;20306;-77
2021/08/13 22:25:18;;;;;;;4.80;2.15;;;25.60;99.90;;;;;;20638749;28;20195;-78
2021/08/13 22:35:23;;;;;;;3.50;1.98;;;25.50;99.90;;;;;;20651128;28;20340;-77
2021/08/13 22:45:27;;;;;;;3.88;1.33;;;25.30;99.90;;;;;;20691204;28;20206;-84
2021/08/13 22:55:33;;;;;;;2.42;1.30;;;25.20;99.90;;;;;;20654898;28;20246;-79
2021/08/13 23:05:36;;;;;;;2.13;1.33;;;25.20;99.90;;;;;;20640366;28;20186;-82
2021/08/13 23:15:41;;;;;;;2.22;1.95;;;24.80;99.90;;;;;;20645186;28;20442;-87
2021/08/13 23:25:45;;;;;;;2.10;1.33;;;24.60;99.90;;;;;;20630479;28;20625;-88
2021/08/13 23:35:50;;;;;;;5.75;2.10;;;24.70;99.90;;;;;;20628587;28;20231;-81
2021/08/13 23:45:54;;;;;;;6.22;2.47;;;24.50;99.90;;;;;;20624863;28;20198;-79
2021/08/13 23:55:59;;;;;;;2.35;2.08;;;24.50;99.90;;;;;;20624895;28;20625;-81
